KGKY

Arlington Municipal Airport

Arlington, Texas, USA
METAR KGKY 221353Z 00000KT 10SM CLR 11/10 A3022 RMK AO2 SLP232 T01110100
Observed Flight Rules
Oct-22 @ 13:53 UTC (51 minutes ago) Visual Flight Rules
Visibility Clouds
10 miles
  • Clear skies
Temperatures Readings
Current 11°C / 52°F
Dewpoint 10°C / 50°F
Humidity 94%
Altimeter 30.22" Hg
Pressure 1023.2 hPa
Elevation 192
METAR KGKY 221353Z 00000KT 10SM CLR 11/10 A3022 RMK AO2 SLP232 T01110100
Observed Flight Rules
Oct-22 @ 13:53 UTC
(51 minutes ago)
VFR
Clouds
  • Clear skies
Temperature Dewpoint
11°C / 52°F 10°C / 50°F
Humidity Altimeter Pressure
94% 30.22" Hg 1023.2 hPa